createdAt,value
2019-02-06T00:00:48.617Z,42.15
2019-02-06T00:03:21.146Z,45.70
2019-02-06T00:05:50.131Z,44.75
2019-02-06T00:08:19.265Z,39.80
2019-02-06T00:10:48.244Z,36.60
2019-02-06T00:13:17.169Z,43.28
2019-02-06T00:15:46.233Z,35.58
2019-02-06T00:18:15.333Z,50.98
2019-02-06T00:20:44.312Z,47.30
2019-02-06T00:23:13.220Z,32.95
2019-02-06T00:25:42.228Z,38.17
2019-02-06T00:28:11.239Z,36.28
2019-02-06T00:30:40.293Z,33.95
2019-02-06T00:33:09.468Z,38.33
2019-02-06T00:35:38.405Z,32.55
2019-02-06T00:38:07.446Z,38.60
2019-02-06T00:40:36.337Z,35.00
2019-02-06T00:43:05.324Z,39.63
2019-02-06T00:45:34.305Z,45.60
2019-02-06T00:48:03.622Z,37.42
2019-02-06T00:50:32.573Z,42.70
2019-02-06T00:53:01.561Z,36.90
2019-02-06T00:55:30.556Z,37.58
2019-02-06T00:57:59.511Z,41.48
2019-02-06T01:00:28.611Z,40.03
2019-02-06T01:02:57.997Z,29.37
2019-02-06T01:05:37.547Z,35.92
2019-02-06T01:07:57.645Z,33.10
2019-02-06T01:10:26.611Z,38.85
2019-02-06T01:12:55.609Z,39.45
2019-02-06T01:15:25.006Z,34.40
2019-02-06T01:17:53.929Z,41.55
2019-02-06T01:20:28.826Z,44.95
2019-02-06T01:22:57.885Z,34.98
2019-02-06T01:25:26.862Z,43.15
2019-02-06T01:27:55.864Z,39.80
2019-02-06T01:30:26.016Z,41.15
2019-02-06T01:32:55.418Z,36.10
2019-02-06T01:35:24.391Z,38.50
2019-02-06T01:37:53.262Z,43.05
2019-02-06T01:40:22.243Z,36.93
2019-02-06T01:42:51.170Z,36.28
2019-02-06T01:45:21.068Z,35.80
2019-02-06T01:47:50.081Z,39.18
2019-02-06T01:50:19.688Z,37.33
2019-02-06T01:52:48.716Z,38.58
2019-02-06T01:55:17.633Z,34.18
2019-02-06T01:57:46.539Z,34.67
2019-02-06T02:00:20.432Z,31.68
2019-02-06T02:02:49.425Z,34.63
2019-02-06T02:05:20.021Z,37.80
2019-02-06T02:07:49.673Z,37.48
2019-02-06T04:50:57.617Z,43.42
2019-02-06T04:53:26.562Z,35.48
2019-02-06T04:55:55.534Z,31.82
2019-02-06T04:58:24.792Z,37.25
2019-02-06T05:00:53.777Z,39.90
2019-02-06T05:03:25.645Z,38.15
2019-02-06T05:05:53.397Z,34.85
2019-02-06T05:08:22.491Z,35.55
2019-02-06T05:10:51.409Z,36.68
2019-02-06T05:13:20.673Z,34.45
2019-02-06T05:15:49.799Z,41.08
2019-02-06T05:18:19.050Z,31.73
2019-02-06T05:20:48.521Z,32.48
2019-02-06T05:23:17.438Z,38.95
2019-02-06T05:25:46.436Z,38.65
2019-02-06T05:28:18.081Z,36.17
2019-02-06T05:30:46.249Z,35.05
2019-02-06T05:33:15.496Z,35.83
2019-02-06T05:35:44.400Z,40.45
2019-02-06T05:38:13.249Z,36.93
2019-02-06T05:40:42.477Z,33.42
2019-02-06T05:43:11.479Z,38.80
2019-02-06T05:45:40.445Z,31.33
2019-02-06T05:48:09.369Z,32.00
2019-02-06T05:50:38.350Z,37.35
2019-02-06T05:53:07.733Z,31.68
2019-02-06T05:55:36.737Z,36.48
2019-02-06T05:58:06.001Z,33.23
2019-02-06T06:00:39.849Z,31.82
2019-02-06T06:03:08.885Z,28.17
2019-02-06T06:05:37.922Z,26.95
2019-02-06T06:08:07.559Z,31.25
2019-02-06T06:10:36.562Z,29.15
2019-02-06T06:13:05.549Z,34.63
2019-02-06T06:15:34.817Z,37.53
2019-02-06T06:18:03.729Z,35.45
2019-02-06T06:20:32.957Z,36.83
2019-02-06T06:23:01.886Z,40.38
2019-02-06T06:25:31.272Z,35.80
2019-02-06T06:28:00.437Z,38.20
2019-02-06T06:30:34.702Z,34.25
2019-02-06T06:33:04.188Z,32.50
2019-02-06T06:35:33.460Z,35.65
2019-02-06T06:38:02.728Z,28.75
2019-02-06T06:40:31.938Z,30.60
2019-02-06T06:43:01.717Z,28.07
2019-02-06T06:45:30.698Z,27.20
2019-02-06T06:47:59.650Z,30.55
2019-02-06T06:50:28.896Z,29.42
2019-02-06T06:52:58.541Z,24.70
2019-02-06T06:55:27.997Z,22.42
2019-02-06T06:57:57.017Z,23.38
2019-02-06T07:00:30.425Z,23.60
2019-02-06T07:03:00.056Z,23.67
2019-02-06T07:05:29.079Z,22.95
2019-02-06T07:08:08.848Z,22.50
2019-02-06T07:10:29.852Z,22.45
2019-02-06T07:12:58.878Z,22.35
2019-02-06T07:15:30.129Z,20.90
2019-02-06T07:18:00.413Z,26.52
2019-02-06T07:20:29.423Z,22.25
2019-02-06T07:22:58.902Z,23.57
2019-02-06T07:25:27.889Z,22.55
2019-02-06T07:27:56.920Z,23.67
2019-02-06T07:30:30.852Z,23.22
2019-02-06T07:33:02.901Z,24.80
2019-02-06T07:35:31.900Z,31.10
2019-02-06T07:38:01.565Z,23.10
2019-02-06T07:40:30.574Z,25.80
2019-02-06T07:42:59.575Z,26.50
2019-02-06T07:45:28.561Z,26.52
2019-02-06T07:47:57.491Z,25.37
2019-02-06T07:50:28.946Z,31.52
2019-02-06T07:52:58.249Z,29.80
2019-02-06T07:55:29.450Z,23.67
2019-02-06T07:57:58.447Z,29.10
2019-02-06T08:00:27.465Z,24.43
2019-02-06T08:02:57.190Z,22.20
2019-02-06T08:05:26.293Z,20.65
2019-02-06T08:07:55.596Z,22.25
2019-02-06T08:10:27.324Z,23.85
2019-02-06T08:12:56.370Z,17.77
2019-02-06T08:15:25.460Z,22.82
2019-02-06T08:17:54.469Z,20.95
2019-02-06T08:20:23.465Z,28.52
2019-02-06T08:22:53.313Z,20.60
2019-02-06T08:25:22.607Z,20.62
2019-02-06T08:27:51.913Z,25.88
2019-02-06T08:30:23.696Z,23.73
2019-02-06T08:32:52.894Z,26.15
2019-02-06T08:35:21.895Z,21.65
2019-02-06T08:37:51.270Z,24.05
2019-02-06T08:40:20.723Z,21.97
2019-02-06T08:42:49.726Z,27.15
2019-02-06T08:45:18.926Z,22.45
2019-02-06T08:47:47.946Z,18.90
2019-02-06T08:50:17.244Z,21.02
2019-02-06T08:52:46.738Z,21.55
2019-02-06T08:55:19.033Z,20.88
2019-02-06T08:57:48.159Z,23.50
2019-02-06T09:00:29.535Z,20.37
2019-02-06T09:02:58.530Z,18.77
2019-02-06T09:05:27.903Z,21.95
2019-02-06T09:07:56.906Z,21.48
2019-02-06T09:10:26.050Z,18.80
2019-02-06T09:12:55.503Z,17.50
2019-02-06T09:15:27.141Z,18.15
2019-02-06T09:17:55.289Z,16.50
2019-02-06T09:20:25.230Z,18.07
2019-02-06T09:22:54.305Z,16.75
2019-02-06T09:25:23.790Z,19.00
2019-02-06T09:27:52.775Z,21.02
2019-02-06T09:30:23.987Z,20.35
2019-02-06T09:32:53.024Z,16.77
2019-02-06T09:35:22.832Z,21.68
2019-02-06T09:37:51.833Z,20.62
2019-02-06T09:40:22.768Z,16.17
2019-02-06T09:42:51.753Z,18.45
2019-02-06T09:45:21.038Z,18.30
2019-02-06T09:47:49.972Z,16.65
2019-02-06T09:50:24.523Z,15.35
2019-02-06T09:52:53.548Z,16.97
2019-02-06T09:55:22.649Z,14.33
2019-02-06T09:57:51.572Z,20.82
2019-02-06T10:00:25.523Z,23.47
2019-02-06T10:02:54.556Z,20.12
2019-02-06T10:05:23.839Z,15.63
2019-02-06T10:07:52.852Z,17.37
2019-02-06T10:10:22.934Z,17.37
2019-02-06T10:12:51.937Z,16.87
2019-02-06T10:15:32.265Z,16.15
2019-02-06T10:18:02.123Z,16.17
2019-02-06T10:20:42.941Z,24.15
2019-02-06T10:23:12.159Z,22.50
2019-02-06T10:25:41.272Z,31.65
2019-02-06T10:28:10.313Z,23.02
2019-02-06T10:30:43.437Z,22.37
2019-02-06T10:33:12.445Z,19.45
2019-02-06T10:35:41.440Z,19.12
2019-02-06T10:38:10.691Z,19.40
2019-02-06T10:40:45.477Z,26.97
2019-02-06T10:43:14.592Z,100.62
2019-02-06T10:45:43.702Z,17.37
2019-02-06T10:48:12.682Z,21.23
2019-02-06T10:50:47.174Z,36.60
2019-02-06T10:53:16.210Z,16.82
2019-02-06T10:55:45.208Z,38.90
2019-02-06T10:58:14.365Z,26.65
2019-02-06T11:00:46.512Z,37.95
2019-02-06T11:03:15.604Z,53.33
2019-02-06T11:05:44.622Z,24.57
2019-02-06T11:08:13.626Z,46.08
2019-02-06T11:10:43.670Z,31.73
2019-02-06T11:13:28.936Z,17.52
2019-02-06T11:15:58.118Z,20.57
2019-02-06T11:18:27.147Z,20.90
2019-02-06T11:20:56.201Z,26.52
2019-02-06T11:23:25.305Z,24.18
2019-02-06T11:26:02.603Z,50.65
2019-02-06T11:28:31.702Z,29.77
2019-02-06T11:31:00.771Z,14.33
2019-02-06T11:33:35.628Z,15.80
2019-02-06T11:36:04.629Z,15.70
2019-02-06T11:38:33.978Z,23.10
2019-02-06T11:41:02.909Z,22.20
2019-02-06T11:43:32.271Z,22.60
2019-02-06T11:46:01.402Z,30.90
2019-02-06T11:48:30.468Z,21.02
2019-02-06T11:50:59.530Z,16.93
2019-02-06T11:53:28.434Z,26.70
2019-02-06T11:55:57.808Z,38.80
2019-02-06T11:58:36.324Z,28.00
2019-02-06T12:01:21.925Z,38.83
2019-02-06T12:03:51.477Z,30.95
2019-02-06T12:06:20.507Z,36.25
2019-02-06T12:08:56.756Z,31.27
2019-02-06T12:11:27.793Z,35.10
2019-02-06T12:14:00.054Z,28.25
2019-02-06T12:16:41.038Z,27.98
2019-02-06T12:19:18.870Z,39.33
2019-02-06T12:22:03.183Z,29.90
2019-02-06T12:24:38.091Z,31.73
2019-02-06T12:27:07.217Z,30.95
2019-02-06T12:29:45.306Z,36.95
2019-02-06T12:32:14.337Z,31.05
2019-02-06T12:34:43.415Z,29.82
2019-02-06T12:37:12.325Z,31.20
2019-02-06T12:39:41.469Z,29.57
2019-02-06T12:42:10.466Z,32.93
2019-02-06T12:44:42.768Z,32.67
2019-02-06T12:47:11.698Z,39.78
2019-02-06T12:49:40.702Z,27.02
2019-02-06T12:52:09.685Z,29.25
2019-02-06T12:54:38.681Z,27.58
2019-02-06T12:57:07.866Z,32.70
2019-02-06T12:59:36.809Z,28.92
2019-02-06T13:02:06.030Z,32.33
2019-02-06T13:04:34.876Z,34.88
2019-02-06T13:07:04.271Z,32.13
2019-02-06T13:09:33.328Z,31.30
2019-02-06T13:12:02.335Z,31.25
2019-02-06T13:14:31.346Z,29.80
2019-02-06T13:17:00.346Z,32.30
2019-02-06T13:19:29.351Z,31.50
2019-02-06T13:22:04.743Z,30.43
2019-02-06T13:24:33.669Z,28.85
2019-02-06T13:27:03.028Z,36.25
2019-02-06T13:29:32.022Z,32.30
2019-02-06T13:32:01.013Z,36.75
2019-02-06T13:34:29.952Z,34.05
2019-02-06T13:36:58.925Z,30.60
2019-02-06T13:39:27.943Z,26.95
2019-02-06T13:41:57.343Z,53.95
2019-02-06T13:44:26.299Z,32.80
2019-02-06T13:46:55.547Z,29.65
2019-02-06T13:49:25.426Z,24.85
2019-02-06T13:52:00.438Z,25.82
2019-02-06T13:54:29.421Z,28.73
2019-02-06T13:56:58.740Z,28.35
2019-02-06T13:59:27.600Z,29.95
2019-02-06T14:01:56.603Z,36.60
2019-02-06T14:04:25.466Z,34.78
2019-02-06T14:06:54.449Z,26.40
2019-02-06T14:09:26.148Z,30.10
2019-02-06T14:11:56.588Z,29.67
2019-02-06T14:14:27.018Z,29.72
2019-02-06T14:16:56.254Z,30.45
2019-02-06T14:19:25.283Z,36.55
2019-02-06T14:21:54.209Z,33.88
2019-02-06T14:24:50.113Z,31.87
2019-02-06T14:27:53.248Z,31.73
2019-02-06T14:31:08.255Z,29.20
2019-02-06T14:34:10.574Z,26.52
2019-02-06T14:37:12.866Z,26.73
2019-02-06T14:39:52.129Z,27.50
2019-02-06T14:42:45.190Z,29.90
2019-02-06T14:45:57.520Z,27.02
2019-02-06T14:48:58.358Z,35.35
2019-02-06T14:51:56.670Z,34.27
2019-02-06T14:54:55.182Z,30.88
2019-02-06T14:57:43.523Z,32.93
2019-02-06T15:00:37.381Z,39.05
2019-02-06T15:03:24.276Z,34.23
2019-02-06T15:06:50.849Z,40.63
2019-02-06T15:09:57.309Z,29.82
2019-02-06T15:13:03.725Z,29.87
2019-02-06T15:16:01.816Z,31.30
2019-02-06T15:18:41.588Z,38.80
2019-02-06T15:21:45.959Z,29.85
2019-02-06T15:24:49.996Z,43.10
2019-02-06T15:27:41.496Z,32.23
2019-02-06T15:31:06.878Z,36.25
2019-02-06T15:34:15.556Z,34.98
2019-02-06T15:37:02.716Z,39.10
2019-02-06T15:40:21.348Z,40.50
2019-02-06T15:43:31.786Z,41.80
2019-02-06T15:46:57.383Z,43.78
2019-02-06T15:49:41.194Z,39.73
2019-02-06T15:52:49.160Z,38.42
2019-02-06T15:55:54.034Z,36.75
2019-02-06T15:58:58.971Z,41.30
2019-02-06T16:02:09.165Z,29.25
2019-02-06T16:05:38.442Z,39.20
2019-02-06T16:08:41.098Z,35.38
2019-02-06T16:12:03.645Z,28.50
2019-02-06T16:14:57.471Z,33.83
2019-02-06T16:18:02.514Z,34.10
2019-02-06T16:21:18.503Z,34.90
2019-02-06T16:24:24.769Z,35.03
2019-02-06T16:27:11.281Z,36.90
2019-02-06T16:30:17.355Z,26.68
2019-02-06T16:33:27.779Z,29.75
2019-02-06T16:36:34.794Z,27.20
2019-02-06T16:39:49.067Z,25.92
2019-02-06T16:43:04.662Z,25.32
2019-02-06T16:46:18.284Z,22.90
2019-02-06T16:49:32.158Z,25.60
2019-02-06T16:52:44.668Z,23.02
2019-02-06T16:55:53.031Z,33.80
2019-02-06T16:59:08.363Z,26.73
2019-02-06T17:02:11.690Z,28.12
2019-02-06T17:05:05.561Z,26.60
2019-02-06T17:08:06.804Z,28.73
2019-02-06T17:11:20.397Z,28.83
2019-02-06T17:14:35.541Z,29.42
2019-02-06T17:17:26.210Z,29.65
2019-02-06T17:20:24.935Z,30.12
2019-02-06T17:23:19.118Z,31.37
2019-02-06T17:26:13.797Z,26.77
2019-02-06T17:29:06.294Z,26.12
2019-02-06T17:32:13.410Z,28.80
2019-02-06T17:35:06.162Z,27.93
2019-02-06T17:37:53.589Z,26.60
2019-02-06T17:41:06.194Z,29.25
2019-02-06T17:44:12.708Z,29.77
2019-02-06T17:47:49.584Z,30.30
2019-02-06T17:51:02.295Z,31.30
2019-02-06T17:54:02.481Z,33.40
2019-02-06T17:56:37.931Z,32.23
2019-02-06T17:59:07.354Z,29.67
2019-02-06T18:01:39.559Z,37.55
2019-02-06T18:04:17.706Z,34.25
2019-02-06T18:06:46.723Z,36.20
2019-02-06T18:09:17.064Z,32.88
2019-02-06T18:11:47.566Z,30.95
2019-02-06T18:14:22.192Z,29.07
2019-02-06T18:16:51.598Z,34.60
2019-02-06T18:19:44.994Z,33.92
2019-02-06T18:22:17.069Z,30.23
2019-02-06T18:24:46.206Z,36.20
2019-02-06T18:27:15.512Z,37.38
2019-02-06T18:29:44.654Z,34.58
2019-02-06T18:32:13.670Z,38.78
2019-02-06T18:34:49.540Z,44.55
2019-02-06T18:37:42.996Z,38.42
2019-02-06T18:40:07.739Z,34.38
2019-02-06T18:42:39.228Z,42.73
2019-02-06T18:45:12.838Z,37.73
2019-02-06T18:47:54.297Z,40.40
2019-02-06T18:54:09.701Z,36.33
2019-02-06T18:56:38.857Z,41.45
2019-02-06T18:59:08.314Z,39.60
2019-02-06T19:01:37.413Z,39.55
2019-02-06T19:04:11.243Z,42.88
2019-02-06T19:06:40.466Z,44.63
2019-02-06T19:09:13.259Z,42.35
2019-02-06T19:11:42.210Z,39.95
2019-02-06T19:14:11.689Z,43.65
2019-02-06T19:16:40.981Z,43.35
2019-02-06T19:19:10.118Z,35.83
2019-02-06T19:21:39.110Z,44.42
2019-02-06T19:24:08.206Z,37.78
2019-02-06T19:26:37.213Z,33.60
2019-02-06T19:29:06.520Z,35.68
2019-02-06T19:31:35.538Z,36.38
2019-02-06T19:34:05.309Z,36.63
2019-02-06T19:36:34.334Z,33.38
2019-02-06T19:39:05.053Z,32.65
2019-02-06T19:41:33.990Z,31.60
2019-02-06T19:44:02.997Z,34.80
2019-02-06T19:46:32.105Z,31.25
2019-02-06T19:49:01.097Z,31.17
2019-02-06T19:51:30.189Z,31.33
2019-02-06T19:53:59.125Z,33.20
2019-02-06T19:56:29.849Z,31.68
2019-02-06T19:58:58.785Z,31.12
2019-02-06T20:01:27.782Z,32.33
2019-02-06T20:04:02.966Z,28.75
2019-02-06T20:06:36.427Z,27.27
2019-02-06T20:09:13.036Z,28.75
2019-02-06T20:11:47.945Z,28.30
2019-02-06T20:14:18.074Z,28.20
2019-02-06T20:16:47.104Z,33.80
2019-02-06T20:19:25.246Z,27.20
2019-02-06T20:21:54.261Z,29.02
2019-02-06T20:24:23.252Z,34.80
2019-02-06T20:26:53.190Z,42.98
2019-02-06T20:29:23.190Z,46.10
2019-02-06T20:31:53.267Z,47.40
2019-02-06T20:34:22.347Z,65.15
2019-02-06T20:36:51.369Z,48.02
2019-02-06T20:39:20.437Z,62.20
2019-02-06T20:41:49.381Z,62.80
2019-02-06T20:44:21.127Z,77.08
2019-02-06T20:46:56.177Z,81.55
2019-02-06T20:49:25.321Z,80.45
2019-02-06T20:51:54.614Z,74.42
2019-02-06T20:54:25.610Z,59.88
2019-02-06T20:56:54.680Z,40.95
2019-02-06T20:59:23.711Z,37.33
2019-02-06T21:01:52.685Z,31.85
2019-02-06T21:04:21.613Z,31.57
2019-02-06T21:06:50.878Z,21.85
2019-02-06T21:09:20.070Z,30.75
2019-02-06T21:11:52.211Z,22.55
2019-02-06T21:14:21.289Z,22.70
2019-02-06T21:16:50.182Z,21.68
2019-02-06T21:19:19.094Z,30.02
2019-02-06T21:21:48.333Z,26.68
2019-02-06T21:24:17.334Z,23.15
2019-02-06T21:26:46.392Z,25.20
2019-02-06T21:29:15.310Z,32.05
2019-02-06T21:31:44.270Z,35.17
2019-02-06T21:34:13.274Z,36.15
2019-02-06T21:36:42.210Z,29.65
2019-02-06T21:39:11.306Z,32.55
2019-02-06T21:41:40.295Z,30.57
2019-02-06T21:44:09.572Z,30.17
2019-02-06T21:46:38.566Z,24.07
2019-02-06T21:49:07.523Z,25.30
2019-02-06T21:51:36.480Z,20.02
2019-02-06T21:54:08.054Z,30.23
2019-02-06T21:56:37.055Z,28.80
2019-02-06T21:59:06.169Z,26.17
2019-02-06T22:01:35.191Z,32.45
2019-02-06T22:04:04.594Z,26.20
2019-02-06T22:06:33.646Z,30.35
2019-02-06T22:09:02.694Z,27.50
2019-02-06T22:11:31.722Z,26.30
2019-02-06T22:14:01.365Z,25.55
2019-02-06T22:16:32.721Z,26.35
2019-02-06T22:19:02.132Z,25.65
2019-02-06T22:21:31.038Z,26.17
2019-02-06T22:24:00.054Z,22.25
2019-02-06T22:26:29.131Z,22.73
2019-02-06T22:28:58.062Z,26.48
2019-02-06T22:31:27.082Z,27.30
2019-02-06T22:33:56.233Z,24.80
2019-02-06T22:36:25.175Z,27.55
2019-02-06T22:38:54.233Z,23.20
2019-02-06T22:41:23.298Z,25.17
2019-02-06T22:43:52.390Z,37.95
2019-02-06T22:46:21.432Z,33.75
2019-02-06T22:48:50.614Z,25.37
2019-02-06T22:51:19.676Z,24.12
2019-02-06T22:53:48.867Z,26.48
2019-02-06T22:56:17.723Z,23.47
2019-02-06T22:58:46.775Z,25.90
2019-02-06T23:01:46.258Z,25.72
2019-02-06T23:04:15.309Z,30.75
2019-02-06T23:06:44.309Z,24.27
2019-02-06T23:09:13.334Z,26.48
2019-02-06T23:11:42.322Z,29.50
2019-02-06T23:14:17.514Z,26.00
2019-02-06T23:16:42.735Z,26.12
2019-02-06T23:19:11.655Z,28.77
2019-02-06T23:21:40.662Z,31.25
2019-02-06T23:24:09.704Z,25.68
2019-02-06T23:26:38.713Z,27.10
2019-02-06T23:29:07.710Z,30.95
2019-02-06T23:31:36.994Z,27.15
2019-02-06T23:34:06.311Z,34.08
2019-02-06T23:36:35.338Z,31.50
2019-02-06T23:39:12.486Z,35.58
2019-02-06T23:41:41.423Z,29.37
2019-02-06T23:44:10.434Z,27.17
2019-02-06T23:46:39.439Z,28.00
2019-02-06T23:49:08.447Z,31.95
2019-02-06T23:51:37.364Z,29.35
2019-02-06T23:54:06.324Z,26.50
2019-02-06T23:56:35.243Z,30.70
2019-02-06T23:59:04.719Z,23.62
